sensor_id;sensor_type;location;lat;lon;timestamp;P1;durP1;ratioP1;P2;durP2;ratioP2
61903;SDS011;47857;52.270;6.804;2023-04-29T00:02:12;53.90;;;34.85;;
61903;SDS011;47857;52.270;6.804;2023-04-29T00:04:38;48.05;;;33.88;;
61903;SDS011;47857;52.270;6.804;2023-04-29T00:07:03;55.92;;;37.05;;
61903;SDS011;47857;52.270;6.804;2023-04-29T00:09:29;55.53;;;36.25;;
61903;SDS011;47857;52.270;6.804;2023-04-29T00:11:54;59.92;;;37.47;;
61903;SDS011;47857;52.270;6.804;2023-04-29T00:14:20;60.47;;;39.03;;
61903;SDS011;47857;52.270;6.804;2023-04-29T00:16:45;62.85;;;39.03;;
61903;SDS011;47857;52.270;6.804;2023-04-29T00:19:11;63.83;;;39.72;;
61903;SDS011;47857;52.270;6.804;2023-04-29T00:21:37;60.97;;;39.42;;
61903;SDS011;47857;52.270;6.804;2023-04-29T00:24:02;60.13;;;38.70;;
61903;SDS011;47857;52.270;6.804;2023-04-29T00:26:28;61.40;;;39.25;;
61903;SDS011;47857;52.270;6.804;2023-04-29T00:28:54;63.45;;;40.53;;
61903;SDS011;47857;52.270;6.804;2023-04-29T00:31:19;62.03;;;39.28;;
61903;SDS011;47857;52.270;6.804;2023-04-29T00:33:45;60.10;;;39.47;;
61903;SDS011;47857;52.270;6.804;2023-04-29T00:36:11;59.25;;;39.72;;
61903;SDS011;47857;52.270;6.804;2023-04-29T00:38:37;66.07;;;41.00;;
61903;SDS011;47857;52.270;6.804;2023-04-29T00:41:02;61.60;;;38.90;;
61903;SDS011;47857;52.270;6.804;2023-04-29T00:43:28;64.50;;;40.45;;
61903;SDS011;47857;52.270;6.804;2023-04-29T00:45:53;62.13;;;40.85;;
61903;SDS011;47857;52.270;6.804;2023-04-29T00:48:19;66.68;;;40.75;;
61903;SDS011;47857;52.270;6.804;2023-04-29T00:50:44;66.00;;;42.42;;
61903;SDS011;47857;52.270;6.804;2023-04-29T00:53:10;66.18;;;42.78;;
61903;SDS011;47857;52.270;6.804;2023-04-29T00:55:39;67.18;;;41.63;;
61903;SDS011;47857;52.270;6.804;2023-04-29T00:58:06;58.92;;;39.30;;
61903;SDS011;47857;52.270;6.804;2023-04-29T01:00:34;60.05;;;39.25;;
61903;SDS011;47857;52.270;6.804;2023-04-29T01:02:59;63.80;;;40.88;;
61903;SDS011;47857;52.270;6.804;2023-04-29T01:05:25;63.97;;;40.30;;
61903;SDS011;47857;52.270;6.804;2023-04-29T01:07:55;62.25;;;40.50;;
61903;SDS011;47857;52.270;6.804;2023-04-29T01:10:29;61.45;;;38.65;;
61903;SDS011;47857;52.270;6.804;2023-04-29T01:13:08;58.75;;;39.67;;
61903;SDS011;47857;52.270;6.804;2023-04-29T01:18:48;52.00;;;35.80;;
61903;SDS011;47857;52.270;6.804;2023-04-29T01:21:13;56.03;;;37.80;;
61903;SDS011;47857;52.270;6.804;2023-04-29T01:23:40;58.05;;;36.70;;
61903;SDS011;47857;52.270;6.804;2023-04-29T01:26:06;52.35;;;35.97;;
61903;SDS011;47857;52.270;6.804;2023-04-29T01:34:07;53.88;;;34.30;;
61903;SDS011;47857;52.270;6.804;2023-04-29T01:41:56;50.65;;;33.70;;
61903;SDS011;47857;52.270;6.804;2023-04-29T01:44:28;53.00;;;34.03;;
61903;SDS011;47857;52.270;6.804;2023-04-29T01:46:56;49.30;;;32.38;;
61903;SDS011;47857;52.270;6.804;2023-04-29T01:49:33;47.72;;;31.48;;
61903;SDS011;47857;52.270;6.804;2023-04-29T01:51:59;47.20;;;31.15;;
61903;SDS011;47857;52.270;6.804;2023-04-29T01:54:25;45.05;;;29.77;;
61903;SDS011;47857;52.270;6.804;2023-04-29T01:56:51;48.63;;;31.48;;
61903;SDS011;47857;52.270;6.804;2023-04-29T01:59:24;45.45;;;30.80;;
61903;SDS011;47857;52.270;6.804;2023-04-29T02:02:10;44.67;;;30.95;;
61903;SDS011;47857;52.270;6.804;2023-04-29T02:04:44;42.30;;;30.83;;
61903;SDS011;47857;52.270;6.804;2023-04-29T02:07:10;40.50;;;29.05;;
61903;SDS011;47857;52.270;6.804;2023-04-29T02:09:35;41.35;;;28.92;;
61903;SDS011;47857;52.270;6.804;2023-04-29T02:12:07;40.33;;;27.73;;
61903;SDS011;47857;52.270;6.804;2023-04-29T02:14:32;40.25;;;27.92;;
61903;SDS011;47857;52.270;6.804;2023-04-29T02:16:59;39.88;;;28.58;;
61903;SDS011;47857;52.270;6.804;2023-04-29T02:19:24;42.58;;;29.00;;
61903;SDS011;47857;52.270;6.804;2023-04-29T02:21:53;38.60;;;27.48;;
61903;SDS011;47857;52.270;6.804;2023-04-29T02:24:19;42.00;;;28.33;;
61903;SDS011;47857;52.270;6.804;2023-04-29T02:26:46;42.17;;;29.08;;
61903;SDS011;47857;52.270;6.804;2023-04-29T02:29:12;42.40;;;27.92;;
61903;SDS011;47857;52.270;6.804;2023-04-29T02:31:37;38.85;;;28.58;;
61903;SDS011;47857;52.270;6.804;2023-04-29T02:34:03;40.38;;;29.10;;
61903;SDS011;47857;52.270;6.804;2023-04-29T02:36:28;43.20;;;28.88;;
61903;SDS011;47857;52.270;6.804;2023-04-29T02:38:55;47.35;;;29.92;;
61903;SDS011;47857;52.270;6.804;2023-04-29T02:41:21;43.35;;;28.05;;
61903;SDS011;47857;52.270;6.804;2023-04-29T02:43:47;42.10;;;29.15;;
61903;SDS011;47857;52.270;6.804;2023-04-29T02:46:13;41.05;;;28.33;;
61903;SDS011;47857;52.270;6.804;2023-04-29T02:48:39;43.85;;;27.95;;
61903;SDS011;47857;52.270;6.804;2023-04-29T02:51:05;42.75;;;28.23;;
61903;SDS011;47857;52.270;6.804;2023-04-29T02:53:30;38.90;;;27.45;;
61903;SDS011;47857;52.270;6.804;2023-04-29T02:55:56;39.88;;;27.88;;
61903;SDS011;47857;52.270;6.804;2023-04-29T02:58:22;37.80;;;26.30;;
61903;SDS011;47857;52.270;6.804;2023-04-29T03:00:48;39.70;;;27.60;;
61903;SDS011;47857;52.270;6.804;2023-04-29T03:03:14;37.38;;;26.70;;
61903;SDS011;47857;52.270;6.804;2023-04-29T03:05:39;38.72;;;26.40;;
61903;SDS011;47857;52.270;6.804;2023-04-29T03:08:05;41.75;;;26.13;;
61903;SDS011;47857;52.270;6.804;2023-04-29T03:10:31;38.95;;;25.95;;
61903;SDS011;47857;52.270;6.804;2023-04-29T03:12:57;34.88;;;23.70;;
61903;SDS011;47857;52.270;6.804;2023-04-29T03:15:23;37.92;;;25.85;;
61903;SDS011;47857;52.270;6.804;2023-04-29T03:17:49;35.25;;;24.38;;
61903;SDS011;47857;52.270;6.804;2023-04-29T03:20:15;37.35;;;23.50;;
61903;SDS011;47857;52.270;6.804;2023-04-29T03:22:40;36.58;;;24.98;;
61903;SDS011;47857;52.270;6.804;2023-04-29T03:25:06;38.65;;;24.90;;
61903;SDS011;47857;52.270;6.804;2023-04-29T03:27:35;34.53;;;23.85;;
61903;SDS011;47857;52.270;6.804;2023-04-29T03:30:01;35.22;;;24.70;;
61903;SDS011;47857;52.270;6.804;2023-04-29T03:32:27;35.83;;;24.75;;
61903;SDS011;47857;52.270;6.804;2023-04-29T03:34:53;36.83;;;25.17;;
61903;SDS011;47857;52.270;6.804;2023-04-29T03:37:38;36.83;;;23.92;;
61903;SDS011;47857;52.270;6.804;2023-04-29T03:40:15;33.95;;;23.60;;
61903;SDS011;47857;52.270;6.804;2023-04-29T03:42:41;35.70;;;24.85;;
61903;SDS011;47857;52.270;6.804;2023-04-29T03:45:06;37.05;;;25.42;;
61903;SDS011;47857;52.270;6.804;2023-04-29T03:47:32;39.20;;;25.27;;
61903;SDS011;47857;52.270;6.804;2023-04-29T03:49:59;37.97;;;25.65;;
61903;SDS011;47857;52.270;6.804;2023-04-29T03:52:24;38.85;;;25.75;;
61903;SDS011;47857;52.270;6.804;2023-04-29T03:54:56;39.30;;;25.50;;
61903;SDS011;47857;52.270;6.804;2023-04-29T03:57:22;40.70;;;26.67;;
61903;SDS011;47857;52.270;6.804;2023-04-29T03:59:50;40.00;;;26.48;;
61903;SDS011;47857;52.270;6.804;2023-04-29T04:02:15;40.72;;;26.75;;
61903;SDS011;47857;52.270;6.804;2023-04-29T04:04:41;43.42;;;26.45;;
61903;SDS011;47857;52.270;6.804;2023-04-29T04:07:07;51.55;;;32.83;;
61903;SDS011;47857;52.270;6.804;2023-04-29T04:09:50;44.22;;;28.13;;
61903;SDS011;47857;52.270;6.804;2023-04-29T04:12:15;49.70;;;29.85;;
61903;SDS011;47857;52.270;6.804;2023-04-29T04:14:41;51.03;;;29.63;;
61903;SDS011;47857;52.270;6.804;2023-04-29T04:17:06;50.20;;;31.90;;
61903;SDS011;47857;52.270;6.804;2023-04-29T04:19:33;50.60;;;31.70;;
61903;SDS011;47857;52.270;6.804;2023-04-29T04:21:59;49.05;;;31.40;;
61903;SDS011;47857;52.270;6.804;2023-04-29T04:24:27;49.80;;;31.50;;
61903;SDS011;47857;52.270;6.804;2023-04-29T04:26:53;49.78;;;30.58;;
61903;SDS011;47857;52.270;6.804;2023-04-29T04:29:23;50.40;;;31.38;;
61903;SDS011;47857;52.270;6.804;2023-04-29T04:32:11;47.70;;;30.70;;
61903;SDS011;47857;52.270;6.804;2023-04-29T04:34:38;48.97;;;30.98;;
61903;SDS011;47857;52.270;6.804;2023-04-29T04:37:04;53.40;;;31.50;;
61903;SDS011;47857;52.270;6.804;2023-04-29T04:39:31;50.25;;;30.73;;
61903;SDS011;47857;52.270;6.804;2023-04-29T04:41:57;47.08;;;29.48;;
61903;SDS011;47857;52.270;6.804;2023-04-29T04:44:24;46.83;;;29.10;;
61903;SDS011;47857;52.270;6.804;2023-04-29T04:47:07;46.85;;;29.80;;
61903;SDS011;47857;52.270;6.804;2023-04-29T04:49:53;45.42;;;29.08;;
61903;SDS011;47857;52.270;6.804;2023-04-29T04:52:20;45.55;;;29.80;;
61903;SDS011;47857;52.270;6.804;2023-04-29T04:54:48;46.25;;;28.48;;
61903;SDS011;47857;52.270;6.804;2023-04-29T04:57:20;47.55;;;29.25;;
61903;SDS011;47857;52.270;6.804;2023-04-29T04:59:46;47.95;;;28.90;;
61903;SDS011;47857;52.270;6.804;2023-04-29T05:02:12;41.92;;;28.45;;
61903;SDS011;47857;52.270;6.804;2023-04-29T05:04:38;47.13;;;28.55;;
61903;SDS011;47857;52.270;6.804;2023-04-29T05:07:03;45.15;;;27.90;;
61903;SDS011;47857;52.270;6.804;2023-04-29T05:09:40;42.38;;;26.95;;
61903;SDS011;47857;52.270;6.804;2023-04-29T05:12:05;45.55;;;28.33;;
61903;SDS011;47857;52.270;6.804;2023-04-29T05:14:31;43.90;;;27.73;;
61903;SDS011;47857;52.270;6.804;2023-04-29T05:16:59;45.35;;;27.88;;
61903;SDS011;47857;52.270;6.804;2023-04-29T05:19:25;38.33;;;26.42;;
61903;SDS011;47857;52.270;6.804;2023-04-29T05:21:51;40.85;;;25.42;;
61903;SDS011;47857;52.270;6.804;2023-04-29T05:24:17;44.80;;;27.05;;
61903;SDS011;47857;52.270;6.804;2023-04-29T05:26:43;48.75;;;26.80;;
61903;SDS011;47857;52.270;6.804;2023-04-29T05:29:09;45.40;;;26.55;;
61903;SDS011;47857;52.270;6.804;2023-04-29T05:31:45;41.00;;;25.58;;
61903;SDS011;47857;52.270;6.804;2023-04-29T05:34:10;42.35;;;26.00;;
61903;SDS011;47857;52.270;6.804;2023-04-29T05:36:36;36.63;;;24.90;;
61903;SDS011;47857;52.270;6.804;2023-04-29T05:39:02;44.35;;;25.65;;
61903;SDS011;47857;52.270;6.804;2023-04-29T05:41:28;40.28;;;25.02;;
61903;SDS011;47857;52.270;6.804;2023-04-29T05:44:20;39.15;;;24.90;;
61903;SDS011;47857;52.270;6.804;2023-04-29T05:46:45;36.72;;;23.98;;
61903;SDS011;47857;52.270;6.804;2023-04-29T05:49:13;39.33;;;24.90;;
61903;SDS011;47857;52.270;6.804;2023-04-29T05:51:40;40.05;;;23.88;;
61903;SDS011;47857;52.270;6.804;2023-04-29T05:54:05;39.17;;;23.45;;
61903;SDS011;47857;52.270;6.804;2023-04-29T05:56:31;40.25;;;23.95;;
61903;SDS011;47857;52.270;6.804;2023-04-29T05:58:57;42.28;;;24.45;;
61903;SDS011;47857;52.270;6.804;2023-04-29T06:01:22;36.10;;;23.60;;
61903;SDS011;47857;52.270;6.804;2023-04-29T06:03:48;35.88;;;24.52;;
61903;SDS011;47857;52.270;6.804;2023-04-29T06:06:28;35.38;;;23.75;;
61903;SDS011;47857;52.270;6.804;2023-04-29T06:09:20;36.20;;;23.23;;
61903;SDS011;47857;52.270;6.804;2023-04-29T06:11:46;37.08;;;23.23;;
61903;SDS011;47857;52.270;6.804;2023-04-29T06:14:12;36.83;;;21.88;;
61903;SDS011;47857;52.270;6.804;2023-04-29T06:16:38;34.63;;;22.45;;
61903;SDS011;47857;52.270;6.804;2023-04-29T06:19:04;37.08;;;21.83;;
61903;SDS011;47857;52.270;6.804;2023-04-29T06:21:29;34.97;;;22.90;;
61903;SDS011;47857;52.270;6.804;2023-04-29T06:23:55;33.22;;;21.80;;
61903;SDS011;47857;52.270;6.804;2023-04-29T06:26:21;40.47;;;23.67;;
61903;SDS011;47857;52.270;6.804;2023-04-29T06:28:47;34.45;;;22.55;;
61903;SDS011;47857;52.270;6.804;2023-04-29T06:31:14;35.72;;;22.23;;
61903;SDS011;47857;52.270;6.804;2023-04-29T06:33:40;37.05;;;22.00;;
61903;SDS011;47857;52.270;6.804;2023-04-29T06:36:06;33.67;;;21.80;;
61903;SDS011;47857;52.270;6.804;2023-04-29T06:38:51;36.47;;;22.55;;
61903;SDS011;47857;52.270;6.804;2023-04-29T06:41:28;34.22;;;22.65;;
61903;SDS011;47857;52.270;6.804;2023-04-29T06:44:00;34.58;;;22.50;;
61903;SDS011;47857;52.270;6.804;2023-04-29T06:46:42;41.30;;;23.13;;
61903;SDS011;47857;52.270;6.804;2023-04-29T06:51:51;34.70;;;22.05;;
61903;SDS011;47857;52.270;6.804;2023-04-29T06:54:17;34.50;;;21.88;;
61903;SDS011;47857;52.270;6.804;2023-04-29T06:56:43;32.20;;;21.38;;
61903;SDS011;47857;52.270;6.804;2023-04-29T06:59:09;40.55;;;21.77;;
61903;SDS011;47857;52.270;6.804;2023-04-29T07:01:36;35.90;;;21.42;;
61903;SDS011;47857;52.270;6.804;2023-04-29T07:04:02;39.70;;;21.65;;
61903;SDS011;47857;52.270;6.804;2023-04-29T07:06:29;39.63;;;21.95;;
61903;SDS011;47857;52.270;6.804;2023-04-29T07:08:54;34.78;;;21.25;;
61903;SDS011;47857;52.270;6.804;2023-04-29T07:11:20;38.22;;;21.38;;
61903;SDS011;47857;52.270;6.804;2023-04-29T07:13:46;38.65;;;21.85;;
61903;SDS011;47857;52.270;6.804;2023-04-29T07:16:15;35.35;;;21.77;;
61903;SDS011;47857;52.270;6.804;2023-04-29T07:18:42;34.78;;;21.40;;
61903;SDS011;47857;52.270;6.804;2023-04-29T07:21:07;33.78;;;21.00;;
61903;SDS011;47857;52.270;6.804;2023-04-29T07:23:33;32.03;;;20.73;;
61903;SDS011;47857;52.270;6.804;2023-04-29T07:26:07;30.60;;;21.25;;
61903;SDS011;47857;52.270;6.804;2023-04-29T07:28:34;36.38;;;20.40;;
61903;SDS011;47857;52.270;6.804;2023-04-29T07:30:59;31.25;;;20.60;;
61903;SDS011;47857;52.270;6.804;2023-04-29T07:33:24;34.47;;;20.88;;
61903;SDS011;47857;52.270;6.804;2023-04-29T07:35:50;33.15;;;20.73;;
61903;SDS011;47857;52.270;6.804;2023-04-29T07:38:15;35.20;;;19.55;;
61903;SDS011;47857;52.270;6.804;2023-04-29T07:40:41;31.45;;;19.92;;
61903;SDS011;47857;52.270;6.804;2023-04-29T07:43:07;33.50;;;20.17;;
61903;SDS011;47857;52.270;6.804;2023-04-29T07:45:33;33.88;;;20.13;;
61903;SDS011;47857;52.270;6.804;2023-04-29T07:47:59;28.65;;;18.90;;
61903;SDS011;47857;52.270;6.804;2023-04-29T07:50:24;30.17;;;18.33;;
61903;SDS011;47857;52.270;6.804;2023-04-29T07:52:50;27.20;;;19.13;;
61903;SDS011;47857;52.270;6.804;2023-04-29T07:55:15;30.73;;;19.38;;
61903;SDS011;47857;52.270;6.804;2023-04-29T07:57:41;28.65;;;18.70;;
61903;SDS011;47857;52.270;6.804;2023-04-29T08:00:07;32.30;;;19.05;;
61903;SDS011;47857;52.270;6.804;2023-04-29T08:02:39;36.33;;;18.52;;
61903;SDS011;47857;52.270;6.804;2023-04-29T08:05:06;28.05;;;17.88;;
61903;SDS011;47857;52.270;6.804;2023-04-29T08:07:32;27.40;;;16.88;;
61903;SDS011;47857;52.270;6.804;2023-04-29T08:09:58;24.00;;;16.73;;
61903;SDS011;47857;52.270;6.804;2023-04-29T08:12:23;27.73;;;17.00;;
61903;SDS011;47857;52.270;6.804;2023-04-29T08:14:49;25.83;;;16.92;;
61903;SDS011;47857;52.270;6.804;2023-04-29T08:17:14;28.23;;;15.80;;
61903;SDS011;47857;52.270;6.804;2023-04-29T08:19:40;27.50;;;15.88;;
61903;SDS011;47857;52.270;6.804;2023-04-29T08:22:05;25.23;;;15.27;;
61903;SDS011;47857;52.270;6.804;2023-04-29T08:24:31;22.83;;;15.57;;
61903;SDS011;47857;52.270;6.804;2023-04-29T08:26:58;24.83;;;15.23;;
61903;SDS011;47857;52.270;6.804;2023-04-29T08:29:23;29.42;;;16.00;;
61903;SDS011;47857;52.270;6.804;2023-04-29T08:31:49;24.48;;;14.88;;
61903;SDS011;47857;52.270;6.804;2023-04-29T08:34:15;23.25;;;14.85;;
61903;SDS011;47857;52.270;6.804;2023-04-29T08:36:40;24.33;;;14.30;;
61903;SDS011;47857;52.270;6.804;2023-04-29T08:39:06;25.60;;;14.70;;
61903;SDS011;47857;52.270;6.804;2023-04-29T08:41:31;23.58;;;14.95;;
61903;SDS011;47857;52.270;6.804;2023-04-29T08:43:58;23.80;;;15.30;;
61903;SDS011;47857;52.270;6.804;2023-04-29T08:46:24;21.95;;;14.30;;
61903;SDS011;47857;52.270;6.804;2023-04-29T08:48:51;22.58;;;14.20;;
61903;SDS011;47857;52.270;6.804;2023-04-29T08:51:17;19.77;;;14.05;;
61903;SDS011;47857;52.270;6.804;2023-04-29T08:53:42;21.80;;;13.10;;
61903;SDS011;47857;52.270;6.804;2023-04-29T08:56:13;20.00;;;13.73;;
61903;SDS011;47857;52.270;6.804;2023-04-29T08:58:42;23.75;;;14.38;;
61903;SDS011;47857;52.270;6.804;2023-04-29T09:01:08;26.33;;;14.68;;
61903;SDS011;47857;52.270;6.804;2023-04-29T09:03:49;21.63;;;13.40;;
61903;SDS011;47857;52.270;6.804;2023-04-29T09:06:20;25.15;;;14.50;;
61903;SDS011;47857;52.270;6.804;2023-04-29T09:08:46;21.58;;;14.73;;
61903;SDS011;47857;52.270;6.804;2023-04-29T09:11:11;21.50;;;13.35;;
61903;SDS011;47857;52.270;6.804;2023-04-29T09:13:38;22.13;;;13.68;;
61903;SDS011;47857;52.270;6.804;2023-04-29T09:16:03;20.00;;;13.38;;
61903;SDS011;47857;52.270;6.804;2023-04-29T09:21:18;21.35;;;13.75;;
61903;SDS011;47857;52.270;6.804;2023-04-29T09:23:45;21.70;;;13.38;;
61903;SDS011;47857;52.270;6.804;2023-04-29T09:26:12;20.02;;;13.18;;
61903;SDS011;47857;52.270;6.804;2023-04-29T09:28:38;19.27;;;13.23;;
61903;SDS011;47857;52.270;6.804;2023-04-29T09:31:09;20.05;;;13.32;;
61903;SDS011;47857;52.270;6.804;2023-04-29T09:33:54;19.08;;;13.70;;
61903;SDS011;47857;52.270;6.804;2023-04-29T09:39:18;20.95;;;13.15;;
61903;SDS011;47857;52.270;6.804;2023-04-29T09:44:16;18.83;;;12.50;;
61903;SDS011;47857;52.270;6.804;2023-04-29T09:46:42;19.35;;;12.52;;
61903;SDS011;47857;52.270;6.804;2023-04-29T09:49:21;22.55;;;12.25;;
61903;SDS011;47857;52.270;6.804;2023-04-29T09:51:51;20.73;;;13.23;;
61903;SDS011;47857;52.270;6.804;2023-04-29T09:54:24;19.88;;;12.23;;
61903;SDS011;47857;52.270;6.804;2023-04-29T09:56:53;20.88;;;12.02;;
61903;SDS011;47857;52.270;6.804;2023-04-29T09:59:20;19.52;;;12.13;;
61903;SDS011;47857;52.270;6.804;2023-04-29T10:01:46;23.63;;;12.77;;
61903;SDS011;47857;52.270;6.804;2023-04-29T10:04:14;18.98;;;12.20;;
61903;SDS011;47857;52.270;6.804;2023-04-29T10:06:40;17.60;;;11.52;;
61903;SDS011;47857;52.270;6.804;2023-04-29T10:09:07;15.55;;;11.55;;
61903;SDS011;47857;52.270;6.804;2023-04-29T10:11:33;17.85;;;11.60;;
61903;SDS011;47857;52.270;6.804;2023-04-29T10:13:59;16.42;;;11.55;;
61903;SDS011;47857;52.270;6.804;2023-04-29T10:16:28;17.23;;;10.70;;
61903;SDS011;47857;52.270;6.804;2023-04-29T10:18:55;16.83;;;10.80;;
61903;SDS011;47857;52.270;6.804;2023-04-29T10:21:27;17.48;;;10.32;;
61903;SDS011;47857;52.270;6.804;2023-04-29T10:23:56;16.48;;;10.27;;
61903;SDS011;47857;52.270;6.804;2023-04-29T10:26:22;14.05;;;9.70;;
61903;SDS011;47857;52.270;6.804;2023-04-29T10:28:55;16.85;;;9.70;;
61903;SDS011;47857;52.270;6.804;2023-04-29T10:31:21;12.15;;;9.10;;
61903;SDS011;47857;52.270;6.804;2023-04-29T10:33:50;15.05;;;9.23;;
61903;SDS011;47857;52.270;6.804;2023-04-29T10:36:16;13.40;;;9.55;;
61903;SDS011;47857;52.270;6.804;2023-04-29T10:38:43;16.35;;;9.50;;
61903;SDS011;47857;52.270;6.804;2023-04-29T10:41:14;14.93;;;9.48;;
61903;SDS011;47857;52.270;6.804;2023-04-29T10:43:44;14.52;;;9.45;;
61903;SDS011;47857;52.270;6.804;2023-04-29T10:46:23;14.00;;;8.95;;
61903;SDS011;47857;52.270;6.804;2023-04-29T10:49:01;14.45;;;9.02;;
61903;SDS011;47857;52.270;6.804;2023-04-29T10:51:28;12.68;;;9.23;;
61903;SDS011;47857;52.270;6.804;2023-04-29T10:53:57;16.83;;;9.48;;
61903;SDS011;47857;52.270;6.804;2023-04-29T10:56:33;13.45;;;9.13;;
61903;SDS011;47857;52.270;6.804;2023-04-29T10:59:03;15.15;;;8.60;;
61903;SDS011;47857;52.270;6.804;2023-04-29T11:01:42;13.10;;;8.68;;
61903;SDS011;47857;52.270;6.804;2023-04-29T11:04:12;10.13;;;7.53;;
61903;SDS011;47857;52.270;6.804;2023-04-29T11:06:39;11.65;;;6.63;;
61903;SDS011;47857;52.270;6.804;2023-04-29T11:09:12;13.82;;;6.85;;
61903;SDS011;47857;52.270;6.804;2023-04-29T11:12:03;13.63;;;6.30;;
61903;SDS011;47857;52.270;6.804;2023-04-29T11:14:31;8.60;;;6.47;;
61903;SDS011;47857;52.270;6.804;2023-04-29T11:17:07;13.65;;;6.95;;
61903;SDS011;47857;52.270;6.804;2023-04-29T11:19:35;12.57;;;7.45;;
61903;SDS011;47857;52.270;6.804;2023-04-29T11:25:04;12.18;;;7.30;;
61903;SDS011;47857;52.270;6.804;2023-04-29T11:27:31;10.70;;;6.38;;
61903;SDS011;47857;52.270;6.804;2023-04-29T11:29:59;8.30;;;6.28;;
61903;SDS011;47857;52.270;6.804;2023-04-29T11:32:32;8.48;;;6.15;;
61903;SDS011;47857;52.270;6.804;2023-04-29T11:37:35;8.65;;;5.55;;
61903;SDS011;47857;52.270;6.804;2023-04-29T11:40:01;7.05;;;5.03;;
61903;SDS011;47857;52.270;6.804;2023-04-29T11:42:27;7.57;;;4.90;;
61903;SDS011;47857;52.270;6.804;2023-04-29T11:44:53;8.43;;;5.75;;
61903;SDS011;47857;52.270;6.804;2023-04-29T11:47:24;9.70;;;5.18;;
61903;SDS011;47857;52.270;6.804;2023-04-29T11:49:51;8.88;;;5.20;;
61903;SDS011;47857;52.270;6.804;2023-04-29T11:52:16;10.13;;;5.90;;
61903;SDS011;47857;52.270;6.804;2023-04-29T11:54:42;9.82;;;5.75;;
61903;SDS011;47857;52.270;6.804;2023-04-29T11:57:09;8.05;;;4.70;;
61903;SDS011;47857;52.270;6.804;2023-04-29T11:59:35;6.38;;;4.50;;
61903;SDS011;47857;52.270;6.804;2023-04-29T12:02:00;7.00;;;4.57;;
61903;SDS011;47857;52.270;6.804;2023-04-29T12:04:26;8.02;;;4.90;;
61903;SDS011;47857;52.270;6.804;2023-04-29T12:06:51;7.72;;;4.85;;
61903;SDS011;47857;52.270;6.804;2023-04-29T12:09:17;8.23;;;5.10;;
61903;SDS011;47857;52.270;6.804;2023-04-29T12:11:43;7.80;;;4.60;;
61903;SDS011;47857;52.270;6.804;2023-04-29T12:14:09;6.95;;;4.15;;
61903;SDS011;47857;52.270;6.804;2023-04-29T12:16:35;9.25;;;4.50;;
61903;SDS011;47857;52.270;6.804;2023-04-29T12:19:00;5.97;;;3.28;;
61903;SDS011;47857;52.270;6.804;2023-04-29T12:21:26;8.95;;;3.85;;
61903;SDS011;47857;52.270;6.804;2023-04-29T12:23:52;6.05;;;3.80;;
61903;SDS011;47857;52.270;6.804;2023-04-29T12:26:18;6.60;;;4.38;;
61903;SDS011;47857;52.270;6.804;2023-04-29T12:28:45;8.35;;;4.22;;
61903;SDS011;47857;52.270;6.804;2023-04-29T12:31:13;7.65;;;4.07;;
61903;SDS011;47857;52.270;6.804;2023-04-29T12:33:41;6.85;;;4.20;;
61903;SDS011;47857;52.270;6.804;2023-04-29T12:36:15;8.48;;;5.30;;
61903;SDS011;47857;52.270;6.804;2023-04-29T12:38:42;8.40;;;5.43;;
61903;SDS011;47857;52.270;6.804;2023-04-29T12:41:08;9.30;;;4.65;;
61903;SDS011;47857;52.270;6.804;2023-04-29T12:43:33;8.90;;;5.13;;
61903;SDS011;47857;52.270;6.804;2023-04-29T12:45:59;5.72;;;4.30;;
61903;SDS011;47857;52.270;6.804;2023-04-29T12:48:29;7.22;;;4.50;;
61903;SDS011;47857;52.270;6.804;2023-04-29T12:50:59;9.27;;;4.72;;
61903;SDS011;47857;52.270;6.804;2023-04-29T12:53:25;6.75;;;4.53;;
61903;SDS011;47857;52.270;6.804;2023-04-29T12:55:52;7.88;;;4.82;;
61903;SDS011;47857;52.270;6.804;2023-04-29T12:58:18;6.63;;;4.45;;
61903;SDS011;47857;52.270;6.804;2023-04-29T13:00:43;9.70;;;4.97;;
61903;SDS011;47857;52.270;6.804;2023-04-29T13:03:09;7.43;;;4.88;;
61903;SDS011;47857;52.270;6.804;2023-04-29T13:05:35;9.40;;;4.88;;
61903;SDS011;47857;52.270;6.804;2023-04-29T13:08:01;7.80;;;5.18;;
61903;SDS011;47857;52.270;6.804;2023-04-29T13:10:27;7.60;;;4.82;;
61903;SDS011;47857;52.270;6.804;2023-04-29T13:12:53;7.78;;;5.25;;
61903;SDS011;47857;52.270;6.804;2023-04-29T13:15:18;10.02;;;4.53;;
61903;SDS011;47857;52.270;6.804;2023-04-29T13:17:44;10.82;;;5.00;;
61903;SDS011;47857;52.270;6.804;2023-04-29T13:20:10;8.02;;;4.07;;
61903;SDS011;47857;52.270;6.804;2023-04-29T13:22:36;5.97;;;3.70;;
61903;SDS011;47857;52.270;6.804;2023-04-29T13:25:02;5.53;;;4.15;;
61903;SDS011;47857;52.270;6.804;2023-04-29T13:27:28;5.32;;;3.90;;
61903;SDS011;47857;52.270;6.804;2023-04-29T13:29:54;5.88;;;4.18;;
61903;SDS011;47857;52.270;6.804;2023-04-29T13:32:21;6.65;;;3.75;;
61903;SDS011;47857;52.270;6.804;2023-04-29T13:34:48;6.03;;;3.92;;
61903;SDS011;47857;52.270;6.804;2023-04-29T13:37:14;6.03;;;4.40;;
61903;SDS011;47857;52.270;6.804;2023-04-29T13:39:41;8.85;;;3.72;;
61903;SDS011;47857;52.270;6.804;2023-04-29T13:42:06;8.15;;;3.78;;
61903;SDS011;47857;52.270;6.804;2023-04-29T13:44:32;6.32;;;4.10;;
61903;SDS011;47857;52.270;6.804;2023-04-29T13:46:58;8.95;;;4.28;;
61903;SDS011;47857;52.270;6.804;2023-04-29T13:49:24;6.53;;;3.70;;
61903;SDS011;47857;52.270;6.804;2023-04-29T13:51:51;6.47;;;3.83;;
61903;SDS011;47857;52.270;6.804;2023-04-29T13:54:17;7.57;;;3.72;;
61903;SDS011;47857;52.270;6.804;2023-04-29T13:56:45;5.53;;;3.40;;
61903;SDS011;47857;52.270;6.804;2023-04-29T13:59:11;5.35;;;3.40;;
61903;SDS011;47857;52.270;6.804;2023-04-29T14:01:37;6.78;;;3.60;;
61903;SDS011;47857;52.270;6.804;2023-04-29T14:04:03;6.28;;;3.90;;
61903;SDS011;47857;52.270;6.804;2023-04-29T14:06:28;7.30;;;4.25;;
61903;SDS011;47857;52.270;6.804;2023-04-29T14:08:56;7.00;;;3.30;;
61903;SDS011;47857;52.270;6.804;2023-04-29T14:11:22;5.05;;;2.90;;
61903;SDS011;47857;52.270;6.804;2023-04-29T14:13:47;5.45;;;2.67;;
61903;SDS011;47857;52.270;6.804;2023-04-29T14:16:13;9.10;;;3.70;;
61903;SDS011;47857;52.270;6.804;2023-04-29T14:18:38;5.57;;;3.22;;
61903;SDS011;47857;52.270;6.804;2023-04-29T14:21:04;7.10;;;3.30;;
61903;SDS011;47857;52.270;6.804;2023-04-29T14:23:30;7.60;;;3.33;;
61903;SDS011;47857;52.270;6.804;2023-04-29T14:25:55;6.55;;;3.53;;
61903;SDS011;47857;52.270;6.804;2023-04-29T14:28:21;8.02;;;3.47;;
61903;SDS011;47857;52.270;6.804;2023-04-29T14:30:46;7.57;;;3.63;;
61903;SDS011;47857;52.270;6.804;2023-04-29T14:33:12;6.80;;;3.22;;
61903;SDS011;47857;52.270;6.804;2023-04-29T14:35:37;5.68;;;2.80;;
61903;SDS011;47857;52.270;6.804;2023-04-29T14:38:03;4.32;;;2.80;;
61903;SDS011;47857;52.270;6.804;2023-04-29T14:40:28;5.53;;;2.60;;
61903;SDS011;47857;52.270;6.804;2023-04-29T14:42:54;4.10;;;2.53;;
61903;SDS011;47857;52.270;6.804;2023-04-29T14:45:19;6.75;;;2.70;;
61903;SDS011;47857;52.270;6.804;2023-04-29T14:47:45;7.28;;;2.80;;
61903;SDS011;47857;52.270;6.804;2023-04-29T14:50:10;5.78;;;3.33;;
61903;SDS011;47857;52.270;6.804;2023-04-29T14:52:36;5.50;;;3.53;;
61903;SDS011;47857;52.270;6.804;2023-04-29T14:55:02;8.32;;;3.85;;
61903;SDS011;47857;52.270;6.804;2023-04-29T14:57:27;7.60;;;3.85;;
61903;SDS011;47857;52.270;6.804;2023-04-29T14:59:54;8.82;;;3.63;;
61903;SDS011;47857;52.270;6.804;2023-04-29T15:02:20;6.65;;;3.35;;